Time;durP1;ratioP1;P1;durP2;ratioP2;P2;SDS_P1;SDS_P2;PMS_P1;PMS_P2;Temp;Humidity;BMP_temperature;BMP_pressure;BME280_temperature;BME280_humidity;BME280_pressure;Samples;Min_cycle;Max_cycle;Signal;HPM_P1;HPM_P2
2023/05/18 00:01:16;;;;;;;;;;;;;;;;;;5034853;28;19927;-78
2023/05/18 00:04:04;;;;;;;;;;;;;;;;;;5034285;28;19921;-79
2023/05/18 00:06:55;;;;;;;;;;;;;;;;;;5035860;28;19920;-78
2023/05/18 00:09:42;;;;;;;;;;;;;;;;;;5035508;28;19921;-79
2023/05/18 00:12:28;;;;;;;;;;;;;;;;;;5041574;28;19932;-79
2023/05/18 00:15:15;;;;;;;;;;;;;;;;;;5040256;28;19931;-78
2023/05/18 00:18:01;;;;;;;;;;;;;;;;;;5041747;28;19920;-79
2023/05/18 00:20:49;;;;;;;;;;;;;;;;;;5041796;28;20494;-78
2023/05/18 00:23:38;;;;;;;;;;;;;;;;;;5037172;28;19924;-79
2023/05/18 00:26:25;;;;;;;;;;;;;;;;;;5043646;28;19923;-79
2023/05/18 00:29:12;;;;;;;;;;;;;;;;;;5039213;28;19927;-79
2023/05/18 00:31:58;;;;;;;;;;;;;;;;;;5044319;28;19916;-80
2023/05/18 00:34:44;;;;;;;;;;;;;;;;;;5025385;28;19925;-79
2023/05/18 00:37:31;;;;;;;;;;;;;;;;;;5029815;28;20677;-80
2023/05/18 00:40:18;;;;;;;;;;;;;;;;;;5043279;28;19920;-79
2023/05/18 00:43:04;;;;;;;;;;;;;;;;;;5024228;28;19951;-79
2023/05/18 00:45:51;;;;;;;;;;;;;;;;;;5031149;28;19921;-79
2023/05/18 00:48:37;;;;;;;;;;;;;;;;;;5030945;28;20292;-79
2023/05/18 00:51:24;;;;;;;;;;;;;;;;;;5038134;28;20447;-79
2023/05/18 00:54:10;;;;;;;;;;;;;;;;;;5046129;28;20295;-78
2023/05/18 00:57:00;;;;;;;;;;;;;;;;;;5042760;28;19924;-78
2023/05/18 00:59:47;;;;;;;;;;;;;;;;;;5042770;28;19959;-79
2023/05/18 01:02:35;;;;;;;;;;;;;;;;;;5031409;28;19916;-78
2023/05/18 01:05:22;;;;;;;;;;;;;;;;;;5041991;28;19920;-78
2023/05/18 01:08:08;;;;;;;;;;;;;;;;;;5041433;28;20294;-78
2023/05/18 01:10:55;;;;;;;;;;;;;;;;;;5040560;28;20003;-78
2023/05/18 01:13:44;;;;;;;;;;;;;;;;;;5042195;28;20296;-78
2023/05/18 01:16:33;;;;;;;;;;;;;;;;;;5043724;28;19924;-78
2023/05/18 01:19:19;;;;;;;;;;;;;;;;;;5037298;28;19921;-79
2023/05/18 01:22:07;;;;;;;;;;;;;;;;;;5039649;28;19920;-78
2023/05/18 01:24:54;;;;;;;;;;;;;;;;;;5037056;28;20394;-78
2023/05/18 01:27:41;;;;;;;;;;;;;;;;;;5045769;28;19917;-78
2023/05/18 01:30:27;;;;;;;;;;;;;;;;;;5045221;28;20024;-78
2023/05/18 01:33:14;;;;;;;;;;;;;;;;;;5037993;28;19924;-78
2023/05/18 01:36:00;;;;;;;;;;;;;;;;;;5044374;28;19920;-78
2023/05/18 01:38:47;;;;;;;;;;;;;;;;;;5040428;28;19920;-78
2023/05/18 01:41:33;;;;;;;;;;;;;;;;;;5034618;28;19921;-78
2023/05/18 01:44:20;;;;;;;;;;;;;;;;;;5035740;28;20357;-78
2023/05/18 01:47:06;;;;;;;;;;;;;;;;;;5042419;28;19924;-78
2023/05/18 01:49:53;;;;;;;;;;;;;;;;;;5045189;28;20300;-78
2023/05/18 01:52:39;;;;;;;;;;;;;;;;;;5054970;28;19936;-78
2023/05/18 01:55:26;;;;;;;;;;;;;;;;;;5049352;28;19955;-79
2023/05/18 01:58:12;;;;;;;;;;;;;;;;;;5030101;28;20270;-79
2023/05/18 02:00:59;;;;;;;;;;;;;;;;;;5047767;28;19976;-78
2023/05/18 02:03:45;;;;;;;;;;;;;;;;;;5046215;28;21010;-78
2023/05/18 02:06:32;;;;;;;;;;;;;;;;;;5046371;28;19912;-79
2023/05/18 02:09:18;;;;;;;;;;;;;;;;;;5040597;28;19929;-79
2023/05/18 02:12:05;;;;;;;;;;;;;;;;;;5040521;28;19932;-79
2023/05/18 02:14:51;;;;;;;;;;;;;;;;;;5045773;28;19932;-79
2023/05/18 02:17:38;;;;;;;;;;;;;;;;;;5031508;28;19917;-78
2023/05/18 02:20:24;;;;;;;;;;;;;;;;;;5044028;28;20384;-79
2023/05/18 02:23:11;;;;;;;;;;;;;;;;;;5042949;28;19912;-78
2023/05/18 02:25:57;;;;;;;;;;;;;;;;;;5037644;28;19913;-79
2023/05/18 02:28:44;;;;;;;;;;;;;;;;;;5031780;28;19917;-78
2023/05/18 02:31:30;;;;;;;;;;;;;;;;;;5024394;28;19916;-79
2023/05/18 02:34:18;;;;;;;;;;;;;;;;;;5044336;28;19932;-79
2023/05/18 02:37:04;;;;;;;;;;;;;;;;;;5036071;28;19913;-79
2023/05/18 02:39:51;;;;;;;;;;;;;;;;;;5038798;28;20633;-79
2023/05/18 02:42:37;;;;;;;;;;;;;;;;;;5015466;28;19924;-79
2023/05/18 02:45:24;;;;;;;;;;;;;;;;;;5023852;28;20310;-79
2023/05/18 02:48:10;;;;;;;;;;;;;;;;;;5032678;28;19916;-80
2023/05/18 02:50:57;;;;;;;;;;;;;;;;;;5042363;28;19923;-79
2023/05/18 02:53:44;;;;;;;;;;;;;;;;;;5045884;28;19924;-79
2023/05/18 02:56:31;;;;;;;;;;;;;;;;;;5029762;28;19920;-80
2023/05/18 02:59:18;;;;;;;;;;;;;;;;;;5038648;28;19923;-79
2023/05/18 03:02:04;;;;;;;;;;;;;;;;;;5033882;28;20369;-79
2023/05/18 03:04:53;;;;;;;;;;;;;;;;;;5037400;28;20300;-79
2023/05/18 03:07:41;;;;;;;;;;;;;;;;;;5030893;28;19917;-79
2023/05/18 03:10:27;;;;;;;;;;;;;;;;;;5047947;28;19947;-79
2023/05/18 03:13:13;;;;;;;;;;;;;;;;;;5046964;28;19921;-78
2023/05/18 03:16:00;;;;;;;;;;;;;;;;;;5020568;28;19936;-78
2023/05/18 03:18:46;;;;;;;;;;;;;;;;;;5017085;28;19921;-79
2023/05/18 03:21:34;;;;;;;;;;;;;;;;;;5013024;28;19925;-79
2023/05/18 03:24:21;;;;;;;;;;;;;;;;;;5022668;28;19921;-78
2023/05/18 03:27:07;;;;;;;;;;;;;;;;;;5017391;28;20399;-79
2023/05/18 03:29:56;;;;;;;;;;;;;;;;;;5022425;28;19917;-78
2023/05/18 03:32:42;;;;;;;;;;;;;;;;;;5016919;28;19917;-78
2023/05/18 03:35:29;;;;;;;;;;;;;;;;;;5031300;28;19943;-78
2023/05/18 03:38:15;;;;;;;;;;;;;;;;;;5033951;28;19919;-79
2023/05/18 03:41:02;;;;;;;;;;;;;;;;;;5026147;28;19924;-78
2023/05/18 03:43:49;;;;;;;;;;;;;;;;;;5014848;28;19924;-79
2023/05/18 03:46:36;;;;;;;;;;;;;;;;;;5028493;28;19923;-78
2023/05/18 03:49:22;;;;;;;;;;;;;;;;;;5021335;28;19917;-79
2023/05/18 03:52:09;;;;;;;;;;;;;;;;;;5019213;28;19925;-78
2023/05/18 03:54:55;;;;;;;;;;;;;;;;;;5020770;28;19929;-78
2023/05/18 03:57:42;;;;;;;;;;;;;;;;;;5017439;28;19924;-78
2023/05/18 04:00:29;;;;;;;;;;;;;;;;;;5028691;28;19921;-78
2023/05/18 04:03:15;;;;;;;;;;;;;;;;;;5017859;28;19917;-79
2023/05/18 04:06:02;;;;;;;;;;;;;;;;;;5022812;28;19921;-79
2023/05/18 04:08:48;;;;;;;;;;;;;;;;;;5013130;28;19921;-78
2023/05/18 04:11:35;;;;;;;;;;;;;;;;;;5025936;28;20311;-79
2023/05/18 04:14:23;;;;;;;;;;;;;;;;;;5015391;28;19936;-78
2023/05/18 04:17:09;;;;;;;;;;;;;;;;;;5046692;28;20360;-78
2023/05/18 04:19:56;;;;;;;;;;;;;;;;;;5042387;28;19917;-78
2023/05/18 04:22:44;;;;;;;;;;;;;;;;;;5026276;28;19917;-78
2023/05/18 04:25:31;;;;;;;;;;;;;;;;;;5022926;28;20681;-78
2023/05/18 04:28:18;;;;;;;;;;;;;;;;;;5039524;28;20643;-79
2023/05/18 04:31:04;;;;;;;;;;;;;;;;;;5033032;28;19920;-79
2023/05/18 04:33:51;;;;;;;;;;;;;;;;;;5030736;28;19929;-78
2023/05/18 04:36:38;;;;;;;;;;;;;;;;;;5044421;28;19917;-78
2023/05/18 04:39:26;;;;;;;;;;;;;;;;;;5019642;28;19931;-78
2023/05/18 04:42:13;;;;;;;;;;;;;;;;;;5032518;28;19917;-77
2023/05/18 04:44:59;;;;;;;;;;;;;;;;;;5031805;28;19921;-78
2023/05/18 04:47:46;;;;;;;;;;;;;;;;;;5033485;28;19923;-76
2023/05/18 04:50:34;;;;;;;;;;;;;;;;;;5038345;28;19920;-79
2023/05/18 04:53:21;;;;;;;;;;;;;;;;;;5041519;28;20307;-84
2023/05/18 04:56:08;;;;;;;;;;;;;;;;;;5025817;28;19917;-78
2023/05/18 04:58:58;;;;;;;;;;;;;;;;;;5040086;28;20567;-79
2023/05/18 05:01:45;;;;;;;;;;;;;;;;;;5044129;28;19920;-79
2023/05/18 05:04:31;;;;;;;;;;;;;;;;;;5038486;28;20388;-81
2023/05/18 05:07:18;;;;;;;;;;;;;;;;;;5032646;28;20384;-82
2023/05/18 05:10:04;;;;;;;;;;;;;;;;;;5034073;28;19928;-83
2023/05/18 05:12:51;;;;;;;;;;;;;;;;;;5032145;28;19916;-82
2023/05/18 05:15:37;;;;;;;;;;;;;;;;;;5027051;28;20491;-84
2023/05/18 05:18:24;;;;;;;;;;;;;;;;;;5041645;28;20483;-84
2023/05/18 05:21:10;;;;;;;;;;;;;;;;;;5043523;28;19928;-81
2023/05/18 05:23:57;;;;;;;;;;;;;;;;;;5039313;28;20026;-81
2023/05/18 05:26:43;;;;;;;;;;;;;;;;;;5042882;28;19921;-81
2023/05/18 05:29:30;;;;;;;;;;;;;;;;;;5042698;28;19916;-81
2023/05/18 05:32:16;;;;;;;;;;;;;;;;;;5045309;28;19921;-81
2023/05/18 05:35:03;;;;;;;;;;;;;;;;;;5042013;28;19933;-84
2023/05/18 05:37:49;;;;;;;;;;;;;;;;;;5043463;28;19916;-84
2023/05/18 05:40:36;;;;;;;;;;;;;;;;;;5037758;28;20289;-82
2023/05/18 05:43:22;;;;;;;;;;;;;;;;;;5044660;28;19913;-82
2023/05/18 05:46:09;;;;;;;;;;;;;;;;;;5044527;28;19919;-79
2023/05/18 05:48:56;;;;;;;;;;;;;;;;;;5045749;28;19921;-82
2023/05/18 05:51:42;;;;;;;;;;;;;;;;;;5029216;28;19951;-81
2023/05/18 05:54:29;;;;;;;;;;;;;;;;;;5040509;28;19995;-82
2023/05/18 05:57:15;;;;;;;;;;;;;;;;;;5041050;28;19913;-81
2023/05/18 06:00:03;;;;;;;;;;;;;;;;;;5035909;28;19928;-82
2023/05/18 06:02:50;;;;;;;;;;;;;;;;;;5045540;28;19928;-81
2023/05/18 06:05:36;;;;;;;;;;;;;;;;;;5055239;28;19916;-82
2023/05/18 06:08:23;;;;;;;;;;;;;;;;;;5050678;28;19925;-82
2023/05/18 06:11:09;;;;;;;;;;;;;;;;;;5044580;28;19921;-82
2023/05/18 06:13:56;;;;;;;;;;;;;;;;;;5046432;28;20594;-82
2023/05/18 06:16:42;;;;;;;;;;;;;;;;;;5032793;28;20567;-83
2023/05/18 06:19:29;;;;;;;;;;;;;;;;;;5041803;28;19979;-87
2023/05/18 06:22:15;;;;;;;;;;;;;;;;;;5041987;28;20257;-87
2023/05/18 06:25:02;;;;;;;;;;;;;;;;;;5043074;28;19921;-89
2023/05/18 06:27:48;;;;;;;;;;;;;;;;;;5038633;28;19920;-89
2023/05/18 06:30:35;;;;;;;;;;;;;;;;;;5044828;28;19921;-90
2023/05/18 06:33:22;;;;;;;;;;;;;;;;;;5041314;28;20268;-89
2023/05/18 06:36:09;;;;;;;;;;;;;;;;;;5042359;28;19925;-89
2023/05/18 06:38:55;;;;;;;;;;;;;;;;;;5042121;28;19923;-89
2023/05/18 06:41:43;;;;;;;;;;;;;;;;;;5037803;28;19927;-82
2023/05/18 06:44:30;;;;;;;;;;;;;;;;;;5042085;28;19943;-82
2023/05/18 06:47:16;;;;;;;;;;;;;;;;;;5042531;28;20034;-82
2023/05/18 06:50:03;;;;;;;;;;;;;;;;;;5043408;28;20303;-82
2023/05/18 06:52:50;;;;;;;;;;;;;;;;;;5039615;28;19921;-84
2023/05/18 06:55:36;;;;;;;;;;;;;;;;;;5042171;28;19929;-82
2023/05/18 06:58:23;;;;;;;;;;;;;;;;;;5027526;28;19921;-83
2023/05/18 07:01:09;;;;;;;;;;;;;;;;;;5021436;28;19921;-80
2023/05/18 07:03:56;;;;;;;;;;;;;;;;;;5046137;28;19921;-82
2023/05/18 07:06:42;;;;;;;;;;;;;;;;;;5052923;28;21029;-82
2023/05/18 07:09:29;;;;;;;;;;;;;;;;;;5041610;28;19924;-82
2023/05/18 07:12:15;;;;;;;;;;;;;;;;;;5032247;28;19927;-82
2023/05/18 07:15:03;;;;;;;;;;;;;;;;;;5043880;28;19933;-83
2023/05/18 07:17:49;;;;;;;;;;;;;;;;;;5039270;28;19940;-84
2023/05/18 07:20:36;;;;;;;;;;;;;;;;;;5039104;28;19921;-83
2023/05/18 07:23:22;;;;;;;;;;;;;;;;;;5041670;28;20484;-89
2023/05/18 07:26:10;;;;;;;;;;;;;;;;;;5039311;28;19920;-80
2023/05/18 07:28:57;;;;;;;;;;;;;;;;;;5047329;28;21556;-89
2023/05/18 07:31:43;;;;;;;;;;;;;;;;;;5042065;28;19931;-88
2023/05/18 07:34:30;;;;;;;;;;;;;;;;;;5038413;28;19929;-88
2023/05/18 07:37:16;;;;;;;;;;;;;;;;;;5033417;28;19917;-86
2023/05/18 07:40:03;;;;;;;;;;;;;;;;;;5043404;28;19931;-89
2023/05/18 07:42:50;;;;;;;;;;;;;;;;;;5043145;28;19916;-82
2023/05/18 07:45:36;;;;;;;;;;;;;;;;;;5033448;28;19920;-81
2023/05/18 07:48:23;;;;;;;;;;;;;;;;;;5042796;28;19923;-87
2023/05/18 07:51:09;;;;;;;;;;;;;;;;;;5041072;28;19944;-84
2023/05/18 07:53:56;;;;;;;;;;;;;;;;;;5040016;28;20288;-92
2023/05/18 07:56:43;;;;;;;;;;;;;;;;;;5041608;28;19921;-89
2023/05/18 07:59:29;;;;;;;;;;;;;;;;;;5047890;28;19928;-91
2023/05/18 08:02:18;;;;;;;;;;;;;;;;;;5050651;28;19917;-90
2023/05/18 08:05:04;;;;;;;;;;;;;;;;;;5046692;28;20291;-91
2023/05/18 08:07:51;;;;;;;;;;;;;;;;;;5044664;28;19932;-89
2023/05/18 08:10:37;;;;;;;;;;;;;;;;;;5046113;28;19927;-82
2023/05/18 08:13:24;;;;;;;;;;;;;;;;;;5039720;28;19932;-83
2023/05/18 08:16:11;;;;;;;;;;;;;;;;;;5039403;28;19932;-82
2023/05/18 08:18:57;;;;;;;;;;;;;;;;;;5043280;28;19923;-83
2023/05/18 08:21:45;;;;;;;;;;;;;;;;;;5041855;28;19920;-83
2023/05/18 08:24:32;;;;;;;;;;;;;;;;;;5042056;28;20678;-83
2023/05/18 08:27:19;;;;;;;;;;;;;;;;;;5041100;28;19916;-83
2023/05/18 08:30:05;;;;;;;;;;;;;;;;;;5036898;28;19920;-83
2023/05/18 08:32:52;;;;;;;;;;;;;;;;;;5037844;28;19917;-83
2023/05/18 08:35:38;;;;;;;;;;;;;;;;;;5026768;28;19940;-82
2023/05/18 08:38:25;;;;;;;;;;;;;;;;;;5040644;28;19940;-83
2023/05/18 08:41:11;;;;;;;;;;;;;;;;;;5039800;28;19917;-84
2023/05/18 08:43:58;;;;;;;;;;;;;;;;;;5040856;28;19931;-81
2023/05/18 08:46:47;;;;;;;;;;;;;;;;;;5037417;28;19925;-82
2023/05/18 08:49:33;;;;;;;;;;;;;;;;;;5038214;28;19920;-80
2023/05/18 08:52:20;;;;;;;;;;;;;;;;;;5037064;28;19927;-81
2023/05/18 08:55:06;;;;;;;;;;;;;;;;;;5031229;28;20360;-78
2023/05/18 08:57:56;;;;;;;;;;;;;;;;;;5035586;28;20297;-78
2023/05/18 09:00:43;;;;;;;;;;;;;;;;;;5037792;28;19920;-78
2023/05/18 09:03:29;;;;;;;;;;;;;;;;;;5044788;28;19924;-78
2023/05/18 09:06:17;;;;;;;;;;;;;;;;;;5042986;28;20396;-77
2023/05/18 09:09:04;;;;;;;;;;;;;;;;;;5038800;28;21261;-83
2023/05/18 09:11:50;;;;;;;;;;;;;;;;;;5043167;28;19920;-79
2023/05/18 09:14:37;;;;;;;;;;;;;;;;;;5048080;28;19929;-81
2023/05/18 09:17:23;;;;;;;;;;;;;;;;;;5043143;28;19920;-77
2023/05/18 09:20:10;;;;;;;;;;;;;;;;;;5042966;28;20014;-78
2023/05/18 09:22:56;;;;;;;;;;;;;;;;;;5044833;28;19920;-78
2023/05/18 09:25:43;;;;;;;;;;;;;;;;;;5032290;28;20032;-80
2023/05/18 09:28:30;;;;;;;;;;;;;;;;;;5033165;28;19921;-79
2023/05/18 09:31:16;;;;;;;;;;;;;;;;;;5034265;28;19925;-80
2023/05/18 09:34:05;;;;;;;;;;;;;;;;;;5039329;28;19947;-79
2023/05/18 09:36:51;;;;;;;;;;;;;;;;;;5042027;28;19920;-76
2023/05/18 09:39:38;;;;;;;;;;;;;;;;;;5037702;28;20281;-84
2023/05/18 09:42:24;;;;;;;;;;;;;;;;;;5048641;28;19924;-84
2023/05/18 09:45:11;;;;;;;;;;;;;;;;;;5040531;28;19921;-85
2023/05/18 09:47:57;;;;;;;;;;;;;;;;;;5041569;28;19917;-82
2023/05/18 09:50:44;;;;;;;;;;;;;;;;;;5036286;28;19923;-81
2023/05/18 09:53:30;;;;;;;;;;;;;;;;;;5036417;28;19916;-80
2023/05/18 09:56:17;;;;;;;;;;;;;;;;;;5035832;28;19928;-85
2023/05/18 09:59:03;;;;;;;;;;;;;;;;;;5030895;28;19929;-85
2023/05/18 10:01:50;;;;;;;;;;;;;;;;;;5041600;28;20511;-84
2023/05/18 10:04:36;;;;;;;;;;;;;;;;;;5037954;28;19921;-81
2023/05/18 10:07:23;;;;;;;;;;;;;;;;;;5045013;28;19929;-83
2023/05/18 10:10:10;;;;;;;;;;;;;;;;;;5040576;28;20284;-80
2023/05/18 10:13:00;;;;;;;;;;;;;;;;;;5045899;28;20052;-82
2023/05/18 10:15:46;;;;;;;;;;;;;;;;;;5039165;28;19924;-82
2023/05/18 10:18:33;;;;;;;;;;;;;;;;;;5037907;28;20328;-81
2023/05/18 10:21:19;;;;;;;;;;;;;;;;;;5041228;28;19920;-82
2023/05/18 10:24:08;;;;;;;;;;;;;;;;;;5039262;28;20062;-82
2023/05/18 10:26:55;;;;;;;;;;;;;;;;;;5030996;28;20150;-82
2023/05/18 10:29:41;;;;;;;;;;;;;;;;;;5032451;28;19917;-83
2023/05/18 10:32:28;;;;;;;;;;;;;;;;;;5034004;28;20388;-81
2023/05/18 10:35:14;;;;;;;;;;;;;;;;;;5035307;28;19928;-80
2023/05/18 10:38:02;;;;;;;;;;;;;;;;;;5048981;28;19921;-79
2023/05/18 10:40:48;;;;;;;;;;;;;;;;;;5041383;28;19916;-79
2023/05/18 10:43:35;;;;;;;;;;;;;;;;;;5037160;28;20507;-79
2023/05/18 10:46:25;;;;;;;;;;;;;;;;;;5044456;28;19921;-79
2023/05/18 10:49:13;;;;;;;;;;;;;;;;;;5044846;28;19927;-78
2023/05/18 10:52:00;;;;;;;;;;;;;;;;;;5040747;28;19918;-79
2023/05/18 10:54:46;;;;;;;;;;;;;;;;;;5041373;28;19924;-78
2023/05/18 10:57:33;;;;;;;;;;;;;;;;;;5042733;28;19916;-78
2023/05/18 11:00:19;;;;;;;;;;;;;;;;;;5042335;28;19928;-78
2023/05/18 11:03:06;;;;;;;;;;;;;;;;;;5039535;28;20545;-80
2023/05/18 11:05:52;;;;;;;;;;;;;;;;;;5034911;28;19963;-78
2023/05/18 11:08:39;;;;;;;;;;;;;;;;;;5041120;28;19923;-79
2023/05/18 11:11:28;;;;;;;;;;;;;;;;;;5036927;28;20621;-78
2023/05/18 11:14:15;;;;;;;;;;;;;;;;;;5043187;28;20422;-78
2023/05/18 11:17:01;;;;;;;;;;;;;;;;;;5016719;28;19920;-78
2023/05/18 11:19:48;;;;;;;;;;;;;;;;;;5023455;28;19947;-78
2023/05/18 11:22:34;;;;;;;;;;;;;;;;;;5023673;28;20029;-77
2023/05/18 11:25:21;;;;;;;;;;;;;;;;;;5027603;28;19923;-78
2023/05/18 11:28:08;;;;;;;;;;;;;;;;;;5015225;28;19924;-78
2023/05/18 11:30:54;;;;;;;;;;;;;;;;;;5027690;28;19921;-79
2023/05/18 11:33:41;;;;;;;;;;;;;;;;;;5020096;28;19917;-79
2023/05/18 11:36:28;;;;;;;;;;;;;;;;;;5026899;28;20667;-78
2023/05/18 11:39:14;;;;;;;;;;;;;;;;;;5019909;28;19925;-78
2023/05/18 11:42:01;;;;;;;;;;;;;;;;;;5024195;28;19925;-77
2023/05/18 11:44:47;;;;;;;;;;;;;;;;;;5016330;28;19917;-79
2023/05/18 11:47:35;;;;;;;;;;;;;;;;;;5012025;28;19917;-78
2023/05/18 11:50:21;;;;;;;;;;;;;;;;;;5016023;28;19932;-78
2023/05/18 11:53:08;;;;;;;;;;;;;;;;;;5026833;28;19963;-77
2023/05/18 11:55:55;;;;;;;;;;;;;;;;;;5027440;28;19931;-78
2023/05/18 11:58:41;;;;;;;;;;;;;;;;;;5022165;28;19939;-78
2023/05/18 12:01:28;;;;;;;;;;;;;;;;;;5024451;28;20284;-78
2023/05/18 12:04:14;;;;;;;;;;;;;;;;;;5023204;28;20589;-79
2023/05/18 12:07:01;;;;;;;;;;;;;;;;;;5018919;28;19928;-78
2023/05/18 12:09:47;;;;;;;;;;;;;;;;;;5020633;28;19917;-78
2023/05/18 12:12:34;;;;;;;;;;;;;;;;;;5018812;28;19924;-78
2023/05/18 12:15:20;;;;;;;;;;;;;;;;;;5025241;28;19929;-78
2023/05/18 12:18:07;;;;;;;;;;;;;;;;;;5035891;28;19928;-78
2023/05/18 12:20:54;;;;;;;;;;;;;;;;;;5049684;28;19920;-79
2023/05/18 12:23:40;;;;;;;;;;;;;;;;;;5049767;28;19917;-78
2023/05/18 12:26:27;;;;;;;;;;;;;;;;;;5059826;28;19943;-78
2023/05/18 12:29:18;;;;;;;;;;;;;;;;;;5061489;28;19952;-77
2023/05/18 12:32:05;;;;;;;;;;;;;;;;;;5040407;28;20459;-79
2023/05/18 12:34:52;;;;;;;;;;;;;;;;;;5035630;28;19925;-78
2023/05/18 12:37:38;;;;;;;;;;;;;;;;;;5039860;28;19924;-77
2023/05/18 12:40:25;;;;;;;;;;;;;;;;;;5048884;28;19917;-79
2023/05/18 12:43:12;;;;;;;;;;;;;;;;;;5039518;28;20372;-77
2023/05/18 12:45:58;;;;;;;;;;;;;;;;;;5030538;28;19929;-78
2023/05/18 12:48:45;;;;;;;;;;;;;;;;;;5037344;28;19917;-77
2023/05/18 12:51:32;;;;;;;;;;;;;;;;;;5034928;28;19917;-78
2023/05/18 12:54:18;;;;;;;;;;;;;;;;;;5031543;28;19921;-78
2023/05/18 12:57:06;;;;;;;;;;;;;;;;;;5028453;28;19927;-78
2023/05/18 12:59:53;;;;;;;;;;;;;;;;;;5042467;28;19923;-78
2023/05/18 13:02:39;;;;;;;;;;;;;;;;;;5029782;28;19921;-77
2023/05/18 13:05:26;;;;;;;;;;;;;;;;;;5036496;28;19959;-78
2023/05/18 13:08:12;;;;;;;;;;;;;;;;;;5031819;28;19916;-78
2023/05/18 13:10:58;;;;;;;;;;;;;;;;;;5036600;28;19928;-79
2023/05/18 13:13:45;;;;;;;;;;;;;;;;;;5030618;28;19917;-78
2023/05/18 13:16:31;;;;;;;;;;;;;;;;;;5033031;28;19929;-79
2023/05/18 13:19:21;;;;;;;;;;;;;;;;;;5025440;28;20278;-78
2023/05/18 13:22:07;;;;;;;;;;;;;;;;;;5040502;28;20277;-78
2023/05/18 13:24:54;;;;;;;;;;;;;;;;;;5041283;28;19916;-77
2023/05/18 13:27:40;;;;;;;;;;;;;;;;;;5041035;28;20299;-78
2023/05/18 13:30:27;;;;;;;;;;;;;;;;;;5030682;28;19917;-79
2023/05/18 13:33:13;;;;;;;;;;;;;;;;;;5038890;28;19917;-78
2023/05/18 13:36:00;;;;;;;;;;;;;;;;;;5038635;28;19928;-80
2023/05/18 13:38:46;;;;;;;;;;;;;;;;;;5038463;28;19946;-82
2023/05/18 13:41:35;;;;;;;;;;;;;;;;;;5042149;28;19931;-81
2023/05/18 13:44:21;;;;;;;;;;;;;;;;;;5038592;28;19916;-81
2023/05/18 13:47:08;;;;;;;;;;;;;;;;;;5042880;28;19924;-81
2023/05/18 13:49:54;;;;;;;;;;;;;;;;;;5043792;28;19913;-81
2023/05/18 13:52:41;;;;;;;;;;;;;;;;;;5036554;28;19930;-78
2023/05/18 13:55:27;;;;;;;;;;;;;;;;;;5028550;28;19947;-79
2023/05/18 13:58:14;;;;;;;;;;;;;;;;;;5044241;28;20357;-79
2023/05/18 14:01:02;;;;;;;;;;;;;;;;;;5035537;28;19925;-79
2023/05/18 14:03:49;;;;;;;;;;;;;;;;;;5037558;28;19917;-79
2023/05/18 14:06:36;;;;;;;;;;;;;;;;;;5041209;28;19921;-80
2023/05/18 14:09:23;;;;;;;;;;;;;;;;;;5023103;28;19955;-79
2023/05/18 14:12:10;;;;;;;;;;;;;;;;;;5037554;28;19916;-79
2023/05/18 14:14:56;;;;;;;;;;;;;;;;;;5033469;28;19944;-79
2023/05/18 14:17:43;;;;;;;;;;;;;;;;;;5016831;28;20393;-80
2023/05/18 14:20:29;;;;;;;;;;;;;;;;;;5025555;28;19939;-80
2023/05/18 14:23:16;;;;;;;;;;;;;;;;;;5021800;28;19921;-79
2023/05/18 14:26:02;;;;;;;;;;;;;;;;;;5019458;28;19929;-81
2023/05/18 14:28:49;;;;;;;;;;;;;;;;;;5014613;28;19921;-81
2023/05/18 14:31:35;;;;;;;;;;;;;;;;;;5021183;28;19921;-81
2023/05/18 14:34:22;;;;;;;;;;;;;;;;;;5019370;28;19920;-81
2023/05/18 14:37:08;;;;;;;;;;;;;;;;;;5023912;28;19925;-82
2023/05/18 14:39:55;;;;;;;;;;;;;;;;;;5021784;28;19921;-80
2023/05/18 14:42:41;;;;;;;;;;;;;;;;;;5018619;28;19928;-81
2023/05/18 14:45:28;;;;;;;;;;;;;;;;;;5021371;28;19921;-81
2023/05/18 14:48:14;;;;;;;;;;;;;;;;;;5018734;28;20011;-81
2023/05/18 14:51:01;;;;;;;;;;;;;;;;;;5024780;28;19932;-83
2023/05/18 14:53:47;;;;;;;;;;;;;;;;;;5021140;28;20393;-79
2023/05/18 14:56:34;;;;;;;;;;;;;;;;;;5015447;28;19939;-80
2023/05/18 14:59:21;;;;;;;;;;;;;;;;;;5020355;28;20336;-79
2023/05/18 15:02:07;;;;;;;;;;;;;;;;;;5023231;28;19952;-79
2023/05/18 15:04:54;;;;;;;;;;;;;;;;;;5023133;28;19978;-81
2023/05/18 15:07:40;;;;;;;;;;;;;;;;;;5010193;28;19926;-81
2023/05/18 15:10:27;;;;;;;;;;;;;;;;;;5020648;28;20567;-80
2023/05/18 15:13:14;;;;;;;;;;;;;;;;;;5021979;28;19933;-80
2023/05/18 15:16:01;;;;;;;;;;;;;;;;;;5036716;28;19925;-79
2023/05/18 15:18:47;;;;;;;;;;;;;;;;;;5038092;28;20327;-80
2023/05/18 15:21:33;;;;;;;;;;;;;;;;;;5039703;28;19917;-79
2023/05/18 15:24:20;;;;;;;;;;;;;;;;;;5034051;28;19921;-77
2023/05/18 15:27:07;;;;;;;;;;;;;;;;;;5042160;28;19928;-80
2023/05/18 15:29:54;;;;;;;;;;;;;;;;;;5036793;28;19917;-80
2023/05/18 15:32:43;;;;;;;;;;;;;;;;;;5039446;28;20284;-80
2023/05/18 15:35:30;;;;;;;;;;;;;;;;;;5039076;28;19956;-79
2023/05/18 15:38:17;;;;;;;;;;;;;;;;;;5035090;28;20034;-79
2023/05/18 15:41:03;;;;;;;;;;;;;;;;;;5035156;28;19928;-78
2023/05/18 15:43:50;;;;;;;;;;;;;;;;;;5038724;28;19924;-79
2023/05/18 15:46:36;;;;;;;;;;;;;;;;;;5037667;28;20455;-79
2023/05/18 15:49:24;;;;;;;;;;;;;;;;;;5024769;28;19921;-79
2023/05/18 15:52:10;;;;;;;;;;;;;;;;;;5037498;28;20012;-79
2023/05/18 15:54:57;;;;;;;;;;;;;;;;;;5031373;28;19921;-79
2023/05/18 15:57:44;;;;;;;;;;;;;;;;;;5042125;28;19925;-79
2023/05/18 16:00:31;;;;;;;;;;;;;;;;;;5043585;28;19952;-78
2023/05/18 16:03:17;;;;;;;;;;;;;;;;;;5041137;28;19925;-79
2023/05/18 16:06:04;;;;;;;;;;;;;;;;;;5042636;28;19935;-78
2023/05/18 16:08:51;;;;;;;;;;;;;;;;;;5034367;28;19917;-79
2023/05/18 16:11:37;;;;;;;;;;;;;;;;;;5038079;28;19916;-79
2023/05/18 16:14:23;;;;;;;;;;;;;;;;;;5042169;28;19920;-79
2023/05/18 16:17:10;;;;;;;;;;;;;;;;;;5042118;28;19920;-79
2023/05/18 16:19:56;;;;;;;;;;;;;;;;;;5039524;28;19933;-78
2023/05/18 16:22:44;;;;;;;;;;;;;;;;;;5038102;28;20475;-78
2023/05/18 16:25:31;;;;;;;;;;;;;;;;;;5036155;28;19921;-78
2023/05/18 16:28:17;;;;;;;;;;;;;;;;;;5029104;28;19920;-78
2023/05/18 16:31:09;;;;;;;;;;;;;;;;;;5038532;28;19917;-80
2023/05/18 16:33:56;;;;;;;;;;;;;;;;;;5036182;28;19913;-79
2023/05/18 16:36:42;;;;;;;;;;;;;;;;;;5036650;28;19936;-79
2023/05/18 16:39:29;;;;;;;;;;;;;;;;;;5036947;28;20408;-80
2023/05/18 16:42:17;;;;;;;;;;;;;;;;;;5034929;28;20293;-79
2023/05/18 16:45:03;;;;;;;;;;;;;;;;;;5037964;28;19924;-79
2023/05/18 16:47:50;;;;;;;;;;;;;;;;;;5039113;28;19920;-79
2023/05/18 16:50:36;;;;;;;;;;;;;;;;;;5039630;28;19939;-78
2023/05/18 16:53:23;;;;;;;;;;;;;;;;;;5044884;28;19927;-78
2023/05/18 16:56:09;;;;;;;;;;;;;;;;;;5038487;28;19940;-79
2023/05/18 16:58:56;;;;;;;;;;;;;;;;;;5038223;28;20304;-79
2023/05/18 17:01:43;;;;;;;;;;;;;;;;;;5038964;28;19920;-79
2023/05/18 17:04:29;;;;;;;;;;;;;;;;;;5029359;28;19943;-78
2023/05/18 17:07:16;;;;;;;;;;;;;;;;;;5039135;28;19921;-78
2023/05/18 17:10:02;;;;;;;;;;;;;;;;;;5039908;28;19921;-79
2023/05/18 17:12:49;;;;;;;;;;;;;;;;;;5025567;28;19924;-77
2023/05/18 17:15:37;;;;;;;;;;;;;;;;;;5031397;28;19929;-78
2023/05/18 17:18:24;;;;;;;;;;;;;;;;;;5039450;28;19922;-78
2023/05/18 17:21:10;;;;;;;;;;;;;;;;;;5047249;28;19921;-77
2023/05/18 17:23:56;;;;;;;;;;;;;;;;;;5037349;28;19921;-78
2023/05/18 17:26:43;;;;;;;;;;;;;;;;;;5035952;28;19920;-77
2023/05/18 17:29:30;;;;;;;;;;;;;;;;;;5029321;28;19921;-78
2023/05/18 17:32:16;;;;;;;;;;;;;;;;;;5038276;28;19917;-78
2023/05/18 17:35:04;;;;;;;;;;;;;;;;;;5040195;28;19921;-76
2023/05/18 17:37:50;;;;;;;;;;;;;;;;;;5037618;28;20280;-76
2023/05/18 17:40:37;;;;;;;;;;;;;;;;;;5035302;28;20304;-77
2023/05/18 17:43:23;;;;;;;;;;;;;;;;;;5052153;28;20385;-77
2023/05/18 17:46:10;;;;;;;;;;;;;;;;;;5031668;28;19917;-77
2023/05/18 17:48:56;;;;;;;;;;;;;;;;;;5040704;28;19927;-77
2023/05/18 17:51:43;;;;;;;;;;;;;;;;;;5033936;28;19916;-78
2023/05/18 17:54:32;;;;;;;;;;;;;;;;;;5036032;28;19916;-78
2023/05/18 17:57:21;;;;;;;;;;;;;;;;;;5051853;28;19925;-78
2023/05/18 18:00:08;;;;;;;;;;;;;;;;;;5045861;28;19927;-78
2023/05/18 18:02:55;;;;;;;;;;;;;;;;;;5036190;28;19917;-78
2023/05/18 18:05:41;;;;;;;;;;;;;;;;;;5034841;28;19921;-78
2023/05/18 18:08:29;;;;;;;;;;;;;;;;;;5042301;28;19920;-78
2023/05/18 18:11:15;;;;;;;;;;;;;;;;;;5041549;28;19927;-77
2023/05/18 18:14:02;;;;;;;;;;;;;;;;;;5037733;28;20391;-78
2023/05/18 18:16:48;;;;;;;;;;;;;;;;;;5038403;28;19939;-78
2023/05/18 18:19:35;;;;;;;;;;;;;;;;;;5037947;28;19925;-79
2023/05/18 18:22:21;;;;;;;;;;;;;;;;;;5043159;28;19921;-78
2023/05/18 18:25:08;;;;;;;;;;;;;;;;;;5039977;28;19917;-79
2023/05/18 18:27:54;;;;;;;;;;;;;;;;;;5041977;28;19920;-78
2023/05/18 18:30:42;;;;;;;;;;;;;;;;;;5048862;28;19917;-76
2023/05/18 18:33:29;;;;;;;;;;;;;;;;;;5040918;28;19933;-79
2023/05/18 18:36:15;;;;;;;;;;;;;;;;;;5040976;28;20077;-78
2023/05/18 18:39:02;;;;;;;;;;;;;;;;;;5043675;28;19921;-78
2023/05/18 18:41:48;;;;;;;;;;;;;;;;;;5041601;28;19927;-77
2023/05/18 18:44:35;;;;;;;;;;;;;;;;;;5041266;28;19964;-78
2023/05/18 18:47:22;;;;;;;;;;;;;;;;;;5042467;28;19916;-78
2023/05/18 18:50:08;;;;;;;;;;;;;;;;;;5039291;28;19921;-78
2023/05/18 18:52:55;;;;;;;;;;;;;;;;;;5043720;28;20377;-77
2023/05/18 18:55:41;;;;;;;;;;;;;;;;;;5044028;28;19939;-77
2023/05/18 18:58:27;;;;;;;;;;;;;;;;;;5038895;28;19931;-79